x

East Lake Ontario - 20nm North Northeast Of Rochester, Ny (45012) Wave Buoy

9:50am - Thu 30th Oct 2014 All times are CDT. -5 hours from GMT.

  • Sig Wave height 2.3ft
  • Peak Period 5s
  • Average Period 4s
  • Wind
    11mph, 13mph gusts
  • Sea Temp 55°f
  • Air Temp 48°f
  • Sea Pressure 1018.2mb
  • East Lake Ontario  - 20nm North Northeast Of Rochester, Ny
  • East Lake Ontario  - 20nm North Northeast Of Rochester, Ny

More Historic Weather Station data

Upgrade to MSW Pro to gain access to the past 30 days of data for over 8000 Wavebouys and Weather Stations around the globe.

Join Pro

Comparision Forecast

View Surf forecast
   
Thu 10/30 9:50am 2.5ft 5s 4s 11 13 mph 1018.2mb 55f 48f
8:50am 2.5ft 5s 4s 11 13 mph 1018.1mb 55f 46f
7:50am 2.5ft 5s 4s 11 13 mph 1017.8mb 55f 46f
6:50am 3ft 5s 4s 13 18 mph 1017.1mb 55f 45f
5:50am 3.5ft 5s 4s 16 20 mph 1016.5mb 55f 46f
4:50am 3.5ft 5s 4s 13 18 mph 1015.8mb 55f 47f
3:50am 4ft 5s 4s 16 18 mph 1015.2mb 55f 46f
2:50am 4ft 6s 4s 18 20 mph 1014.8mb 55f 48f
1:50am 4.5ft 5s 4s 18 22 mph 1014.7mb 55f 48f
12:50am 4.5ft 5s 4s 20 22 mph 1014.4mb 55f 48f
Wed 10/29 11:50pm 4.5ft 6s 4s 20 25 mph 1014.3mb 55f 49f
10:50pm 5ft 6s 4s 18 25 mph 1014.1mb 55f 50f
9:50pm 4.5ft 5s 4s 22 27 mph 1013.8mb 55f 50f
8:50pm 5ft 5s 4s 20 27 mph 1013.5mb 55f 51f
7:50pm 5ft 5s 4s 22 27 mph 1013.1mb 55f 51f
6:50pm 4.5ft 5s 4s 20 25 mph 1013mb 55f 52f
5:50pm 4ft 5s 4s 20 25 mph 1012.4mb 55f 53f
4:50pm 4ft 5s 4s 20 25 mph 1011.7mb 55f 54f
3:50pm 4.5ft 5s 4s 20 22 mph 1011.4mb 55f 54f
2:50pm 4.5ft 5s 4s 22 27 mph 1011.3mb 55f 54f
1:50pm 4.5ft 5s  -  22 25 mph 1011.4mb 55f 57f
12:50pm 4ft 5s 4s 22 27 mph 1011.6mb 54f 56f
11:50am 4ft 5s 4s 22 27 mph 1012.1mb 54f 53f
10:50am 3.5ft 5s 4s 18 22 mph 1012.4mb 54f 54f
9:50am 4ft 5s 4s 18 25 mph 1012.2mb 54f 53f
8:50am 4.5ft 5s 4s 20 22 mph 1012mb 54f 54f
7:50am 4.5ft 5s 4s 20 25 mph 1011.8mb 54f 53f
6:50am 4.5ft 6s 4s 22 27 mph 1011.3mb 54f 53f
5:50am 4.5ft 5s 4s 22 25 mph 1011.1mb 54f 54f
4:50am 4ft 5s 4s 22 27 mph 1010.7mb 54f 54f
3:50am 3.5ft 4s 4s 20 25 mph 1010.3mb 55f 55f
2:50am 2ft 3s 3s 20 25 mph 1010.1mb 55f 56f
1:50am 1.6ft 4s 3s 18 20 mph 1010mb 55f 57f
12:50am 1.6ft 4s 3s 13 16 mph 1009.8mb 55f 56f
Tue 10/28 11:50pm 1.6ft 4s 3s 11
mph
1009.9mb 55f 57f
10:50pm 2ft 4s 3s 11
mph
1009.5mb 55f 57f
9:50pm 1.6ft 4s 3s 11 16 mph 1009.2mb 55f 57f
8:50pm 2ft 4s 3s 13 16 mph 1008.9mb 55f 57f
7:50pm 1.6ft 3s 3s 16 18 mph 1008.3mb 55f 58f
6:50pm 1.3ft 3s 3s 11 13 mph 1007.9mb 55f 59f
5:50pm 1.3ft 4s 3s 9 13 mph 1007.6mb 55f 59f
4:50pm 1ft 3s 3s 9 11 mph 1006.8mb 55f 61f
3:50pm 1ft 5s 3s 7
mph
1006.1mb 55f 61f
2:50pm 1.3ft 3s 3s 7
mph
1006.1mb 55f 65f
1:50pm 1.3ft 4s 3s 7 9 mph 1006.6mb 55f 69f
12:50pm 1.3ft 4s 3s 7 9 mph 1007.1mb 55f 66f
11:50am 1.6ft 4s 3s 11 13 mph 1007.5mb 54f 64f
10:50am 1.6ft 4s 3s 11 13 mph 1008.5mb 54f 64f
9:50am 1.6ft 4s 3s 11
mph
1009.1mb 54f 62f
8:50am 1.6ft 4s 3s 9 11 mph 1009.4mb 54f 60f
7:50am 2ft 4s 4s 9 11 mph 1009.2mb 54f 58f
6:50am 2ft 4s 3s 11 13 mph 1009.1mb 54f 56f
5:50am 1.6ft 3s 3s 16 18 mph 1009.3mb 54f 56f
4:50am 2ft 4s 3s 16 20 mph 1009.4mb 54f 55f
3:50am 2ft 3s 3s 16 18 mph 1009.7mb 54f 55f
2:50am 2.5ft 4s 3s 16 18 mph 1009.7mb 54f 55f
1:50am 2.5ft 4s 3s 13 18 mph 1010.4mb 54f 55f
12:50am 2.5ft 4s 4s 13 16 mph 1010.6mb 54f 55f
Mon 10/27 11:50pm 3ft 4s 4s 16 20 mph 1011mb 54f 52f
10:50pm 3.5ft 4s 4s 18 22 mph 1011.2mb 54f 54f
9:50pm 3ft 4s 4s 18 22 mph 1012mb 54f 54f
8:50pm 2.5ft 4s 3s 18 22 mph 1012.4mb 54f 53f
7:50pm 2ft 3s 3s 18 22 mph 1012.9mb 54f 53f
6:50pm 1.3ft 2s 3s 18 20 mph 1013.3mb 54f 52f
5:50pm 0.7ft  -  2s 13 16 mph 1014.3mb 54f 51f
4:50pm 0.7ft  -  3s 11
mph
1014.6mb 54f 51f
3:50pm 0.7ft  -  3s 4 7 mph 1015.4mb 54f 50f
2:50pm 1ft 4s 3s 4
mph
1015.6mb 55f 53f
1:50pm 1ft 4s 3s  -  mph 1016.1mb 55f 53f
12:50pm 1.3ft 4s 3s 4
mph
1016.8mb 55f 52f
11:50am 1.3ft 4s 3s  -  2 mph 1017.1mb 54f 55f
10:50am 1.3ft 4s 3s 4 7 mph 1017.6mb 54f 53f
9:50am 1.6ft 5s 3s 7 11 mph 1017.7mb 54f 53f
8:50am 1.6ft 5s 3s 9 13 mph 1017.2mb 54f 49f
7:50am 2ft 5s 4s 11 13 mph 1016.5mb 54f 49f
6:50am 2.5ft 5s 4s 11 13 mph 1015.6mb 53f 48f
5:50am 2.5ft 5s 4s 13 16 mph 1015mb 53f 48f
4:50am 3ft 5s 4s 13 16 mph 1014.3mb 53f 48f
3:50am 3.5ft 6s 4s 13 18 mph 1013.5mb 53f 49f
2:50am 4.5ft 6s 4s 16 20 mph 1013mb 53f 49f
1:50am 5ft 6s 4s 18 22 mph 1012.4mb 53f 50f
12:50am 5ft 5s 4s 20 25 mph 1011.9mb 53f 51f
Sun 10/26 11:50pm 5ft 6s 4s 22 27 mph 1011.4mb 53f 52f
10:50pm 5ft 6s 4s 22 27 mph 1011.2mb 53f 51f
9:50pm 5.5ft 7s 5s 25 27 mph 1011.2mb 53f 52f
8:50pm 6ft 5s 4s 25 31 mph 1010.9mb 53f 52f
7:50pm 6ft 6s 5s 27 34 mph 1010.4mb 53f 52f
6:50pm 6ft 6s 5s 27 31 mph 1009.6mb 54f 53f
5:50pm 6ft 6s 5s 25 27 mph 1008.9mb 54f 53f
4:50pm 5ft 5s 4s 25 29 mph 1008.4mb 54f 53f
3:50pm 5ft 6s 4s 25 27 mph 1007.7mb 54f 53f